Time;durP1;ratioP1;P1;durP2;ratioP2;P2;SDS_P1;SDS_P2;PMS_P1;PMS_P2;Temp;Humidity;BMP_temperature;BMP_pressure;BME280_temperature;BME280_humidity;BME280_pressure;Samples;Min_cycle;Max_cycle;Signal;HPM_P1;HPM_P2
2021/03/22 00:01:08;;;;;;;17.83;13.63;;;5.80;99.90;;;;;;5100353;28;20047;-79
2021/03/22 00:03:34;;;;;;;21.00;14.07;;;5.80;99.90;;;;;;5093205;28;20032;-79
2021/03/22 00:06:01;;;;;;;18.65;14.15;;;6.00;99.90;;;;;;5093571;28;20028;-79
2021/03/22 00:08:27;;;;;;;19.95;13.80;;;5.60;99.90;;;;;;5093315;28;20095;-79
2021/03/22 00:10:52;;;;;;;18.73;13.85;;;6.00;99.90;;;;;;5093872;28;20366;-79
2021/03/22 00:13:20;;;;;;;19.70;13.77;;;5.50;99.90;;;;;;5093941;28;20519;-79
2021/03/22 00:15:47;;;;;;;21.27;14.25;;;6.00;99.90;;;;;;5092553;28;20028;-79
2021/03/22 00:18:17;;;;;;;18.40;13.10;;;5.50;99.90;;;;;;5094776;28;20107;-79
2021/03/22 00:20:43;;;;;;;18.08;13.00;;;5.90;99.90;;;;;;5094834;28;20052;-79
2021/03/22 00:23:09;;;;;;;20.30;14.13;;;5.40;99.90;;;;;;5095267;28;20024;-79
2021/03/22 00:25:35;;;;;;;18.92;13.65;;;5.40;99.90;;;;;;5094938;28;20445;-79
2021/03/22 00:28:02;;;;;;;19.50;13.48;;;5.40;99.90;;;;;;5095043;28;20074;-79
2021/03/22 00:30:32;;;;;;;20.77;14.02;;;5.40;99.90;;;;;;5105062;28;20016;-79
2021/03/22 00:32:58;;;;;;;20.20;13.60;;;5.40;99.90;;;;;;5114107;28;20103;-79
2021/03/22 00:35:24;;;;;;;19.58;13.43;;;5.70;99.90;;;;;;5114954;28;20505;-79
2021/03/22 00:37:50;;;;;;;20.05;13.27;;;5.80;99.90;;;;;;5115153;28;20023;-79
2021/03/22 00:40:20;;;;;;;18.60;13.48;;;5.60;99.90;;;;;;5113343;28;20150;-79
2021/03/22 00:42:46;;;;;;;19.98;13.75;;;5.50;99.90;;;;;;5115032;28;20028;-79
2021/03/22 00:45:13;;;;;;;20.67;14.20;;;5.40;99.90;;;;;;5115005;28;20550;-79
2021/03/22 00:47:39;;;;;;;20.63;13.85;;;5.40;99.90;;;;;;5114575;28;20062;-79
2021/03/22 00:50:06;;;;;;;22.48;13.90;;;5.90;99.90;;;;;;5115067;28;20109;-79
2021/03/22 00:52:32;;;;;;;20.23;13.85;;;5.50;99.90;;;;;;5114797;28;20022;-79
2021/03/22 00:54:58;;;;;;;17.42;12.98;;;5.50;99.90;;;;;;5114109;28;20103;-79
2021/03/22 00:57:23;;;;;;;18.75;13.10;;;5.70;99.90;;;;;;5114591;28;20019;-79
2021/03/22 00:59:49;;;;;;;19.98;13.52;;;6.10;99.90;;;;;;5114702;28;20444;-79
2021/03/22 01:02:14;;;;;;;22.13;14.38;;;6.10;99.90;;;;;;5114324;28;20028;-79
2021/03/22 01:04:41;;;;;;;21.25;14.15;;;5.70;99.90;;;;;;5114678;28;20023;-79
2021/03/22 01:07:06;;;;;;;20.55;14.00;;;5.80;99.90;;;;;;5114103;28;20031;-79
2021/03/22 01:09:32;;;;;;;21.23;13.82;;;5.90;99.90;;;;;;5114409;28;20388;-79
2021/03/22 01:11:57;;;;;;;20.80;13.77;;;5.60;99.90;;;;;;5114419;28;20051;-79
2021/03/22 01:14:24;;;;;;;20.25;13.98;;;5.60;99.90;;;;;;5113724;28;20027;-79
2021/03/22 01:16:50;;;;;;;21.17;14.27;;;5.70;99.90;;;;;;5114100;28;20030;-79
2021/03/22 01:19:20;;;;;;;20.17;14.15;;;6.00;99.90;;;;;;5114000;28;20051;-79
2021/03/22 01:22:06;;;;;;;22.38;14.13;;;5.80;99.90;;;;;;5095068;28;20036;-79
2021/03/22 01:24:32;;;;;;;20.27;13.93;;;5.80;99.90;;;;;;5093436;28;20035;-79
2021/03/22 01:27:06;;;;;;;20.15;13.27;;;5.80;99.90;;;;;;5093905;28;20020;-79
2021/03/22 01:29:41;;;;;;;20.13;14.20;;;5.30;99.90;;;;;;5093627;28;20539;-79
2021/03/22 01:32:09;;;;;;;22.15;14.40;;;5.30;99.90;;;;;;5093826;28;20027;-79
2021/03/22 01:34:34;;;;;;;19.90;13.75;;;5.20;99.90;;;;;;5093374;28;20024;-79
2021/03/22 01:37:00;;;;;;;19.30;13.93;;;5.40;99.90;;;;;;5093106;28;20028;-79
2021/03/22 01:39:30;;;;;;;22.58;14.30;;;5.30;99.90;;;;;;5093538;28;20106;-79
2021/03/22 01:42:03;;;;;;;24.48;15.00;;;5.20;99.90;;;;;;5093413;28;20024;-79
2021/03/22 01:44:31;;;;;;;22.13;14.23;;;5.20;99.90;;;;;;5093255;28;20051;-79
2021/03/22 01:47:02;;;;;;;22.92;15.02;;;5.30;99.90;;;;;;5093366;28;20020;-79
2021/03/22 01:49:36;;;;;;;22.52;14.40;;;5.70;99.90;;;;;;5093243;28;20020;-79
2021/03/22 01:52:03;;;;;;;23.25;14.40;;;5.30;99.90;;;;;;5093413;28;20024;-79
2021/03/22 01:54:29;;;;;;;22.38;15.30;;;5.20;99.90;;;;;;5093172;28;20435;-79
2021/03/22 01:57:15;;;;;;;23.38;15.23;;;5.70;99.90;;;;;;5093939;28;20021;-79
2021/03/22 01:59:41;;;;;;;21.75;14.88;;;5.80;99.90;;;;;;5104592;28;20024;-79
2021/03/22 02:02:08;;;;;;;21.63;14.98;;;5.80;99.90;;;;;;5093605;28;20024;-79
2021/03/22 02:04:33;;;;;;;22.80;15.20;;;5.80;99.90;;;;;;5093806;28;20020;-79
2021/03/22 02:07:00;;;;;;;24.50;15.32;;;5.80;99.90;;;;;;5093676;28;20032;-79
2021/03/22 02:09:26;;;;;;;23.13;15.27;;;5.30;99.90;;;;;;5093046;28;20028;-79
2021/03/22 02:11:51;;;;;;;25.70;16.75;;;5.20;99.90;;;;;;5092899;28;20077;-79
2021/03/22 02:14:17;;;;;;;23.10;15.25;;;5.70;99.90;;;;;;5092350;28;20024;-79
2021/03/22 02:16:49;;;;;;;23.98;15.90;;;5.30;99.90;;;;;;5092666;28;20020;-79
2021/03/22 02:19:39;;;;;;;23.15;15.15;;;5.40;99.90;;;;;;5090595;28;20463;-79
2021/03/22 02:22:47;;;;;;;23.80;15.95;;;5.40;99.90;;;;;;5092680;28;20032;-79
2021/03/22 02:25:41;;;;;;;24.25;16.17;;;5.40;99.90;;;;;;5053566;28;20127;-79
2021/03/22 02:28:35;;;;;;;24.40;15.70;;;5.40;99.90;;;;;;5070199;28;20489;-79
2021/03/22 02:31:19;;;;;;;23.30;15.02;;;5.50;99.90;;;;;;5050395;28;20059;-79
2021/03/22 02:34:03;;;;;;;24.75;15.40;;;5.50;99.90;;;;;;5050368;28;20438;-79
2021/03/22 02:36:39;;;;;;;22.45;15.55;;;5.70;99.90;;;;;;5049927;28;20040;-79
2021/03/22 02:39:05;;;;;;;24.90;15.77;;;5.60;99.90;;;;;;5050233;28;20102;-79
2021/03/22 02:41:33;;;;;;;24.88;16.55;;;5.90;99.90;;;;;;5033433;28;20033;-79
2021/03/22 02:44:05;;;;;;;23.75;16.40;;;5.60;99.90;;;;;;5065766;28;20368;-79
2021/03/22 02:46:31;;;;;;;25.25;16.77;;;5.50;99.90;;;;;;5072470;28;20086;-79
2021/03/22 02:48:57;;;;;;;26.13;17.75;;;5.50;99.90;;;;;;5070273;28;20043;-79
2021/03/22 02:51:47;;;;;;;24.27;16.02;;;5.70;99.90;;;;;;5053360;28;20032;-79
2021/03/22 02:54:20;;;;;;;27.65;18.13;;;5.60;99.90;;;;;;5070211;28;20041;-79
2021/03/22 02:57:03;;;;;;;30.17;18.48;;;5.90;99.90;;;;;;5069711;28;20064;-79
2021/03/22 02:59:35;;;;;;;28.55;18.35;;;5.60;99.90;;;;;;5080619;28;20032;-79
2021/03/22 03:02:03;;;;;;;28.90;18.27;;;5.90;99.90;;;;;;5102233;28;20050;-79
2021/03/22 03:04:33;;;;;;;31.63;19.42;;;5.60;99.90;;;;;;5112689;28;20016;-79
2021/03/22 03:07:01;;;;;;;30.23;19.00;;;6.00;99.90;;;;;;5112665;28;20032;-79
2021/03/22 03:09:34;;;;;;;27.70;18.42;;;5.60;99.90;;;;;;5112419;28;20012;-79
2021/03/22 03:12:29;;;;;;;30.27;19.05;;;5.80;99.90;;;;;;5112208;28;20023;-79
2021/03/22 03:14:56;;;;;;;28.95;18.52;;;5.60;99.90;;;;;;5106941;28;20035;-79
2021/03/22 03:17:24;;;;;;;31.65;19.08;;;6.10;99.90;;;;;;5112545;28;20035;-79
2021/03/22 03:19:51;;;;;;;33.83;18.63;;;5.70;99.90;;;;;;5109414;28;20437;-79
2021/03/22 03:22:17;;;;;;;27.70;18.00;;;5.50;99.90;;;;;;5092366;28;20482;-79
2021/03/22 03:24:43;;;;;;;29.85;19.27;;;5.90;99.90;;;;;;5092094;28;20024;-79
2021/03/22 03:27:10;;;;;;;31.98;19.85;;;5.50;99.90;;;;;;5091741;28;20107;-79
2021/03/22 03:29:37;;;;;;;33.13;19.58;;;5.50;99.90;;;;;;5092088;28;20020;-79
2021/03/22 03:32:07;;;;;;;34.25;19.63;;;5.40;99.90;;;;;;5094892;28;20106;-79
2021/03/22 03:34:33;;;;;;;31.83;20.27;;;5.50;99.90;;;;;;5096053;28;20024;-79
2021/03/22 03:36:59;;;;;;;30.55;19.35;;;5.90;99.90;;;;;;5095933;28;20032;-79
2021/03/22 03:39:25;;;;;;;31.27;19.70;;;5.60;99.90;;;;;;5095901;28;20376;-79
2021/03/22 03:41:50;;;;;;;32.88;19.55;;;5.90;99.90;;;;;;5094991;28;20479;-79
2021/03/22 03:44:17;;;;;;;32.13;19.50;;;5.60;99.90;;;;;;5095713;28;20032;-79
2021/03/22 03:46:43;;;;;;;30.70;18.52;;;6.00;99.90;;;;;;5095684;28;20035;-79
2021/03/22 03:49:08;;;;;;;31.20;19.92;;;5.60;99.90;;;;;;5095751;28;20031;-79
2021/03/22 03:51:36;;;;;;;30.83;20.17;;;5.70;99.90;;;;;;5095733;28;20024;-79
2021/03/22 03:54:04;;;;;;;30.77;19.67;;;5.80;99.90;;;;;;5094272;28;20028;-79
2021/03/22 03:56:29;;;;;;;33.20;19.90;;;5.70;99.90;;;;;;5095353;28;20027;-79
2021/03/22 03:58:56;;;;;;;31.02;20.60;;;6.00;99.90;;;;;;5095437;28;20024;-79
2021/03/22 04:01:22;;;;;;;30.77;19.52;;;6.20;99.90;;;;;;5095494;28;20492;-79
2021/03/22 04:03:48;;;;;;;31.75;19.90;;;5.90;99.90;;;;;;5095219;28;20595;-79
2021/03/22 04:06:21;;;;;;;28.85;18.55;;;5.90;99.90;;;;;;5095433;28;20060;-79
2021/03/22 04:08:52;;;;;;;30.70;20.35;;;5.80;99.90;;;;;;5094893;28;20434;-79
2021/03/22 04:11:45;;;;;;;28.25;18.63;;;5.80;99.90;;;;;;5098023;28;20471;-79
2021/03/22 04:14:22;;;;;;;30.90;19.23;;;5.80;99.90;;;;;;5114853;28;20055;-79
2021/03/22 04:16:48;;;;;;;30.17;19.20;;;5.80;99.90;;;;;;5115499;28;20084;-79
2021/03/22 04:19:14;;;;;;;31.85;18.65;;;5.80;99.90;;;;;;5115360;28;20449;-79
2021/03/22 04:21:40;;;;;;;28.85;19.40;;;5.70;99.90;;;;;;5097073;28;20511;-79
2021/03/22 04:24:06;;;;;;;29.55;18.83;;;5.70;99.90;;;;;;5094625;28;20020;-79
2021/03/22 04:26:32;;;;;;;31.80;19.60;;;5.50;99.90;;;;;;5094940;28;20130;-79
2021/03/22 04:28:58;;;;;;;29.35;19.02;;;6.00;99.90;;;;;;5094916;28;20027;-79
2021/03/22 04:31:26;;;;;;;29.35;18.48;;;5.80;99.90;;;;;;5094881;28;20031;-79
2021/03/22 04:33:52;;;;;;;31.50;20.50;;;5.70;99.90;;;;;;5094792;28;20028;-79
2021/03/22 04:36:26;;;;;;;28.83;18.58;;;5.90;99.90;;;;;;5094798;28;20089;-79
2021/03/22 04:38:52;;;;;;;29.58;18.52;;;5.70;99.90;;;;;;5094465;28;20032;-79
2021/03/22 04:41:18;;;;;;;28.13;18.23;;;5.70;99.90;;;;;;5095849;28;20058;-79
2021/03/22 04:43:44;;;;;;;30.92;19.60;;;5.90;99.90;;;;;;5093452;28;20480;-79
2021/03/22 04:46:09;;;;;;;26.33;17.20;;;5.40;99.90;;;;;;5094492;28;20031;-79
2021/03/22 04:48:35;;;;;;;31.67;19.08;;;5.50;99.90;;;;;;5094385;28;20072;-79
2021/03/22 04:51:01;;;;;;;30.13;19.42;;;6.00;99.90;;;;;;5094347;28;20056;-79
2021/03/22 04:53:27;;;;;;;29.38;17.75;;;5.40;99.90;;;;;;5094154;28;20024;-79
2021/03/22 04:55:53;;;;;;;29.33;18.63;;;5.90;99.90;;;;;;5094316;28;20031;-79
2021/03/22 04:58:18;;;;;;;28.73;18.33;;;5.70;99.90;;;;;;5094480;28;20028;-79
2021/03/22 05:00:46;;;;;;;32.00;18.98;;;5.90;99.90;;;;;;5094135;28;20031;-79
2021/03/22 05:03:18;;;;;;;23.85;17.30;;;5.40;99.90;;;;;;5094167;28;20565;-79
2021/03/22 05:05:45;;;;;;;30.85;17.75;;;5.30;99.90;;;;;;5094208;28;20016;-79
2021/03/22 05:08:13;;;;;;;27.52;17.98;;;5.20;99.90;;;;;;5094070;28;20032;-79
2021/03/22 05:10:42;;;;;;;26.25;16.48;;;5.60;99.90;;;;;;5099889;28;20160;-79
2021/03/22 05:13:10;;;;;;;27.33;17.77;;;5.40;99.90;;;;;;5114443;28;20429;-79
2021/03/22 05:15:37;;;;;;;26.88;17.35;;;5.20;99.90;;;;;;5114528;28;20491;-79
2021/03/22 05:18:03;;;;;;;26.92;18.08;;;5.40;99.90;;;;;;5114228;28;20028;-79
2021/03/22 05:20:35;;;;;;;26.10;16.92;;;5.20;99.90;;;;;;5105867;27;20044;-79
2021/03/22 05:23:04;;;;;;;29.15;17.27;;;5.60;99.90;;;;;;5092921;28;20063;-79
2021/03/22 05:25:29;;;;;;;29.02;17.85;;;5.20;99.90;;;;;;5100310;28;20015;-79
2021/03/22 05:27:55;;;;;;;29.15;17.35;;;5.20;99.90;;;;;;5103607;28;20099;-79
2021/03/22 05:30:22;;;;;;;24.00;15.57;;;4.90;99.90;;;;;;5100524;28;20017;-79
2021/03/22 05:32:48;;;;;;;30.00;17.80;;;4.90;99.90;;;;;;5100512;28;20445;-79
2021/03/22 05:35:20;;;;;;;27.73;16.63;;;5.60;99.90;;;;;;5114828;28;20024;-79
2021/03/22 05:37:46;;;;;;;25.38;16.80;;;5.60;99.90;;;;;;5112049;28;20024;-79
2021/03/22 05:40:21;;;;;;;28.70;16.70;;;5.50;99.90;;;;;;5096059;28;20028;-79
2021/03/22 05:43:17;;;;;;;24.08;16.02;;;5.10;99.90;;;;;;5106222;28;20039;-79
2021/03/22 05:46:14;;;;;;;26.40;17.48;;;5.30;99.90;;;;;;5093939;28;20036;-79
2021/03/22 05:49:01;;;;;;;26.00;16.45;;;5.30;99.90;;;;;;5089052;28;20115;-79
2021/03/22 05:51:54;;;;;;;27.10;17.13;;;5.30;99.90;;;;;;5093469;28;20023;-79
2021/03/22 05:54:44;;;;;;;26.17;15.25;;;5.30;99.90;;;;;;5094130;28;20034;-79
2021/03/22 05:57:43;;;;;;;26.17;16.38;;;5.40;99.90;;;;;;5113919;28;20027;-79
2021/03/22 06:00:26;;;;;;;26.88;15.82;;;5.40;99.90;;;;;;5114390;28;20020;-79
2021/03/22 06:03:17;;;;;;;24.33;15.25;;;5.10;99.90;;;;;;5113988;28;20035;-79
2021/03/22 06:06:10;;;;;;;26.27;16.33;;;5.50;99.90;;;;;;5114116;27;20016;-79
2021/03/22 06:08:40;;;;;;;27.05;15.63;;;5.00;99.90;;;;;;5114265;28;20020;-79
2021/03/22 06:11:34;;;;;;;25.67;15.35;;;5.00;99.90;;;;;;5099250;28;20027;-79
2021/03/22 06:14:07;;;;;;;28.85;15.15;;;5.30;99.90;;;;;;5093709;28;20099;-79
2021/03/22 06:16:43;;;;;;;26.30;15.50;;;5.30;99.90;;;;;;5093820;28;20031;-79
2021/03/22 06:19:19;;;;;;;30.75;15.20;;;5.00;99.90;;;;;;5092924;28;20052;-79
2021/03/22 06:21:49;;;;;;;23.25;14.27;;;5.20;99.90;;;;;;5093382;28;20410;-79
2021/03/22 06:24:19;;;;;;;22.95;14.23;;;4.90;99.90;;;;;;5093520;28;20480;-79
2021/03/22 06:26:48;;;;;;;27.73;15.13;;;5.60;99.90;;;;;;5093325;28;20081;-79
2021/03/22 06:29:31;;;;;;;27.80;14.63;;;5.40;99.90;;;;;;5093467;28;20055;-79
2021/03/22 06:32:03;;;;;;;28.10;14.38;;;5.00;99.90;;;;;;5093513;28;20095;-79
2021/03/22 06:34:46;;;;;;;23.83;14.48;;;4.90;99.90;;;;;;5092313;28;20028;-79
2021/03/22 06:37:14;;;;;;;27.30;14.27;;;5.20;99.90;;;;;;5091718;28;20067;-79
2021/03/22 06:39:46;;;;;;;24.20;14.35;;;5.40;99.90;;;;;;5091689;28;20425;-78
2021/03/22 06:42:20;;;;;;;22.73;13.75;;;5.40;99.90;;;;;;5092305;28;20032;-78
2021/03/22 06:44:47;;;;;;;25.40;13.43;;;4.90;99.90;;;;;;5092190;28;20062;-79
2021/03/22 06:47:12;;;;;;;27.02;13.23;;;5.50;99.90;;;;;;5101383;28;20020;-79
2021/03/22 06:49:40;;;;;;;25.30;14.40;;;5.70;99.90;;;;;;5112077;28;20510;-79
2021/03/22 06:52:15;;;;;;;26.30;13.65;;;5.60;99.90;;;;;;5094216;28;20027;-79
2021/03/22 06:54:48;;;;;;;21.98;12.82;;;5.20;99.90;;;;;;5104497;28;20480;-79
2021/03/22 06:57:19;;;;;;;22.55;12.50;;;5.40;99.90;;;;;;5101848;28;20025;-79
2021/03/22 07:00:04;;;;;;;20.85;12.75;;;5.70;99.90;;;;;;5092315;28;20016;-79
2021/03/22 07:02:38;;;;;;;21.50;12.90;;;5.20;99.90;;;;;;5092050;28;20031;-79
2021/03/22 07:05:21;;;;;;;23.33;11.93;;;5.30;99.90;;;;;;5075616;28;20062;-79
2021/03/22 07:07:57;;;;;;;24.50;12.73;;;5.20;99.90;;;;;;5096350;28;20091;-79
2021/03/22 07:10:26;;;;;;;20.65;11.73;;;5.30;99.90;;;;;;5096239;28;20510;-79
2021/03/22 07:13:15;;;;;;;22.98;13.13;;;5.80;99.90;;;;;;5096412;28;20024;-79
2021/03/22 07:15:41;;;;;;;22.10;11.73;;;5.40;99.90;;;;;;5092711;28;20090;-79
2021/03/22 07:18:13;;;;;;;21.40;11.88;;;5.30;99.90;;;;;;5095908;28;20103;-79
2021/03/22 07:20:42;;;;;;;23.33;12.32;;;5.50;99.90;;;;;;5096186;28;20055;-79
2021/03/22 07:23:24;;;;;;;20.70;11.35;;;5.80;99.90;;;;;;5109155;28;20114;-79
2021/03/22 07:25:55;;;;;;;21.90;11.50;;;5.80;99.90;;;;;;5097910;28;20024;-79
2021/03/22 07:28:48;;;;;;;20.40;10.57;;;6.40;99.90;;;;;;5096048;28;20058;-79
2021/03/22 07:31:47;;;;;;;21.90;10.77;;;6.10;99.90;;;;;;5095830;28;20016;-79
2021/03/22 07:35:01;;;;;;;23.73;10.00;;;6.20;99.90;;;;;;5095393;28;20095;-79
2021/03/22 07:37:54;;;;;;;19.75;10.00;;;6.20;99.90;;;;;;5072425;28;20146;-80
2021/03/22 07:40:44;;;;;;;15.02;9.57;;;6.40;99.90;;;;;;5072728;28;20123;-79
2021/03/22 07:43:27;;;;;;;22.17;9.82;;;6.30;99.90;;;;;;5073025;28;20052;-79
2021/03/22 07:46:36;;;;;;;15.43;9.23;;;6.40;99.90;;;;;;5073277;28;20504;-79
2021/03/22 07:49:23;;;;;;;16.52;9.25;;;6.90;99.90;;;;;;5056463;28;20432;-79
2021/03/22 07:52:09;;;;;;;18.88;9.60;;;7.00;99.90;;;;;;5073233;28;20055;-79
2021/03/22 07:54:50;;;;;;;18.98;8.90;;;7.00;99.90;;;;;;5072774;28;20072;-78
2021/03/22 07:57:28;;;;;;;16.23;9.18;;;7.00;99.90;;;;;;5072945;28;20097;-79
2021/03/22 07:59:56;;;;;;;18.38;9.25;;;7.20;99.90;;;;;;5072920;28;20497;-79
2021/03/22 08:02:41;;;;;;;17.15;9.45;;;7.20;99.90;;;;;;5072483;28;20028;-79
2021/03/22 08:05:18;;;;;;;22.25;10.00;;;7.60;99.90;;;;;;5072948;28;20028;-78
2021/03/22 08:07:58;;;;;;;24.35;9.70;;;7.10;99.90;;;;;;5072920;28;20059;-78
2021/03/22 08:10:35;;;;;;;22.20;10.98;;;7.00;99.90;;;;;;5072784;28;20527;-78
2021/03/22 08:13:28;;;;;;;18.52;9.93;;;7.10;99.90;;;;;;5073258;28;20045;-78
2021/03/22 08:15:56;;;;;;;19.55;9.20;;;7.40;99.90;;;;;;5074697;28;20040;-78
2021/03/22 08:18:37;;;;;;;16.40;10.07;;;7.60;99.90;;;;;;5072293;28;20490;-78
2021/03/22 08:21:03;;;;;;;20.05;10.43;;;7.60;99.90;;;;;;5086235;28;20055;-81
2021/03/22 08:23:57;;;;;;;17.02;9.02;;;8.50;99.90;;;;;;5101770;28;20069;-84
2021/03/22 08:26:30;;;;;;;15.98;9.10;;;8.60;99.90;;;;;;5115566;28;20027;-77
2021/03/22 08:29:01;;;;;;;14.77;9.20;;;8.20;99.90;;;;;;5115550;28;20099;-77
2021/03/22 08:31:49;;;;;;;17.95;9.73;;;8.10;99.90;;;;;;5114615;28;20479;-88
2021/03/22 08:34:14;;;;;;;13.15;9.05;;;8.80;99.90;;;;;;5115349;28;20019;-79
2021/03/22 08:37:03;;;;;;;14.77;8.55;;;8.50;99.90;;;;;;5115115;28;20027;-79
2021/03/22 08:39:41;;;;;;;14.68;9.20;;;8.40;99.90;;;;;;5096700;28;20019;-79
2021/03/22 08:42:26;;;;;;;17.13;9.32;;;8.00;99.90;;;;;;5094521;28;20039;-79
2021/03/22 08:45:15;;;;;;;17.30;9.68;;;8.00;99.90;;;;;;5094482;28;20020;-81
2021/03/22 08:48:05;;;;;;;14.90;9.02;;;8.40;99.90;;;;;;5094793;28;20028;-79
2021/03/22 08:50:34;;;;;;;17.70;9.25;;;8.80;99.90;;;;;;5094380;28;20506;-79
2021/03/22 08:53:10;;;;;;;18.77;9.25;;;9.00;99.90;;;;;;5094469;28;20035;-79
2021/03/22 08:55:39;;;;;;;18.25;9.25;;;9.20;99.90;;;;;;5094545;28;20380;-79
2021/03/22 08:58:23;;;;;;;16.95;9.63;;;10.00;99.90;;;;;;5094361;28;20498;-79
2021/03/22 09:00:50;;;;;;;16.33;9.27;;;9.60;99.90;;;;;;5094083;28;20035;-79
2021/03/22 09:03:16;;;;;;;17.35;9.25;;;9.30;99.90;;;;;;5094175;28;20523;-79
2021/03/22 09:06:06;;;;;;;14.88;8.88;;;9.30;99.90;;;;;;5094188;28;20145;-79
2021/03/22 09:08:35;;;;;;;16.75;9.65;;;9.80;99.90;;;;;;5107347;28;20074;-79
2021/03/22 09:11:34;;;;;;;16.25;9.20;;;9.40;99.90;;;;;;5114709;28;20016;-79
2021/03/22 09:14:29;;;;;;;16.58;9.27;;;9.90;99.90;;;;;;5112615;28;20491;-79
2021/03/22 09:16:57;;;;;;;17.15;9.00;;;10.20;99.90;;;;;;5114368;28;20028;-79
2021/03/22 09:19:39;;;;;;;14.88;8.57;;;10.30;99.90;;;;;;5114170;28;20059;-79
2021/03/22 09:22:25;;;;;;;14.25;8.23;;;10.50;99.90;;;;;;5078203;28;20020;-79
2021/03/22 09:24:50;;;;;;;15.35;8.52;;;11.00;99.90;;;;;;5086105;28;20109;-79
2021/03/22 09:27:16;;;;;;;18.13;8.60;;;13.60;99.90;;;;;;5093744;28;20513;-79
2021/03/22 09:29:44;;;;;;;15.38;8.02;;;14.80;99.90;;;;;;5093010;28;20110;-79
2021/03/22 09:34:57;;;;;;;14.20;8.65;;;17.70;99.90;;;;;;5094480;28;20036;-79
2021/03/22 09:37:56;;;;;;;13.90;7.85;;;20.00;99.90;;;;;;5094362;28;20032;-79
2021/03/22 09:40:24;;;;;;;14.02;8.18;;;20.30;99.90;;;;;;5094118;28;20093;-79
2021/03/22 09:43:17;;;;;;;14.07;7.90;;;20.60;99.90;;;;;;5093767;28;20103;-79
2021/03/22 09:45:55;;;;;;;14.35;8.38;;;21.70;99.90;;;;;;5104007;28;20054;-79
2021/03/22 09:48:22;;;;;;;13.95;8.35;;;19.50;99.90;;;;;;5114718;28;20384;-79
2021/03/22 09:51:08;;;;;;;15.23;8.43;;;19.80;99.90;;;;;;5114247;28;20046;-79
2021/03/22 09:53:49;;;;;;;13.40;8.43;;;20.80;99.90;;;;;;5112954;28;20023;-79
2021/03/22 09:56:40;;;;;;;14.23;8.05;;;22.20;99.90;;;;;;5114585;28;20023;-79
2021/03/22 09:59:30;;;;;;;11.98;7.63;;;23.80;99.90;;;;;;5114252;28;20023;-79
2021/03/22 10:01:59;;;;;;;12.60;7.80;;;22.90;99.90;;;;;;5073479;28;20056;-79
2021/03/22 10:04:31;;;;;;;12.93;7.53;;;23.80;99.90;;;;;;5073389;28;20052;-80
2021/03/22 10:07:17;;;;;;;15.25;8.48;;;26.70;99.90;;;;;;5073620;28;20029;-80
2021/03/22 10:10:00;;;;;;;12.40;8.48;;;25.40;99.90;;;;;;5073702;28;20396;-80
2021/03/22 10:12:35;;;;;;;12.98;8.15;;;23.60;99.90;;;;;;5073230;28;20028;-80
2021/03/22 10:15:17;;;;;;;14.35;8.25;;;22.40;99.90;;;;;;5082126;28;20027;-81
2021/03/22 10:18:09;;;;;;;14.38;7.88;;;22.50;99.90;;;;;;5093813;28;20063;-80
2021/03/22 10:20:42;;;;;;;12.77;7.20;;;25.00;99.90;;;;;;5093067;28;20058;-80
2021/03/22 10:23:11;;;;;;;14.15;7.22;;;26.60;99.90;;;;;;5093614;28;20506;-80
2021/03/22 10:25:41;;;;;;;11.95;7.03;;;26.40;99.90;;;;;;5093032;28;20095;-80
2021/03/22 10:28:17;;;;;;;15.20;7.40;;;25.60;99.90;;;;;;5093740;28;20028;-80
2021/03/22 10:30:56;;;;;;;13.07;7.25;;;26.00;99.90;;;;;;5093344;28;20065;-81
2021/03/22 10:33:22;;;;;;;9.82;7.05;;;26.50;99.90;;;;;;5092609;28;20039;-80
2021/03/22 10:35:53;;;;;;;13.57;7.65;;;27.50;99.90;;;;;;5092056;28;20016;-81
2021/03/22 10:38:30;;;;;;;12.85;6.93;;;26.40;99.90;;;;;;5092842;28;20028;-80
2021/03/22 10:40:57;;;;;;;14.05;7.55;;;25.40;99.90;;;;;;5092042;28;20487;-80
2021/03/22 10:43:31;;;;;;;11.65;6.75;;;27.40;99.90;;;;;;5093061;28;20425;-80
2021/03/22 10:46:18;;;;;;;13.63;7.82;;;28.50;99.90;;;;;;5092861;28;20016;-80
2021/03/22 10:48:46;;;;;;;11.65;7.38;;;28.10;99.90;;;;;;5092302;28;20081;-80
2021/03/22 10:51:19;;;;;;;12.77;7.05;;;26.50;99.90;;;;;;5093108;28;20013;-80
2021/03/22 10:53:58;;;;;;;11.25;7.30;;;28.60;99.90;;;;;;5092463;28;20039;-80
2021/03/22 10:56:48;;;;;;;11.20;6.85;;;30.10;99.90;;;;;;5092117;28;20388;-80
2021/03/22 10:59:26;;;;;;;12.60;6.70;;;31.10;99.90;;;;;;5104068;28;20073;-81
2021/03/22 11:01:56;;;;;;;11.88;7.25;;;30.90;99.90;;;;;;5113517;28;20416;-81
2021/03/22 11:04:26;;;;;;;11.60;6.95;;;29.80;99.90;;;;;;5113206;28;20392;-81
2021/03/22 11:06:52;;;;;;;12.27;6.05;;;30.60;99.90;;;;;;5112082;28;20030;-81
2021/03/22 11:09:29;;;;;;;10.32;6.35;;;28.50;99.90;;;;;;5112307;28;20028;-80
2021/03/22 11:11:57;;;;;;;11.77;6.97;;;27.10;99.90;;;;;;5093309;28;20153;-80
2021/03/22 11:14:26;;;;;;;11.98;6.65;;;26.20;99.90;;;;;;5092610;28;20407;-81
2021/03/22 11:16:53;;;;;;;14.95;7.57;;;24.90;99.90;;;;;;5102162;28;20024;-80
2021/03/22 11:19:32;;;;;;;12.23;6.78;;;24.40;99.90;;;;;;5113445;28;20036;-81
2021/03/22 11:22:03;;;;;;;11.73;7.10;;;26.90;99.90;;;;;;5071261;28;20435;-82
2021/03/22 11:24:38;;;;;;;11.75;6.75;;;28.10;99.90;;;;;;5079177;28;20020;-81
2021/03/22 11:27:07;;;;;;;11.07;6.22;;;29.40;99.90;;;;;;5092594;28;20031;-82
2021/03/22 11:29:44;;;;;;;12.95;6.55;;;30.20;99.90;;;;;;5092399;28;20518;-81
2021/03/22 11:32:19;;;;;;;13.93;6.60;;;30.50;99.90;;;;;;5104231;28;20030;-81
2021/03/22 11:34:46;;;;;;;16.15;6.82;;;27.90;99.90;;;;;;5099740;28;20085;-81
2021/03/22 11:37:17;;;;;;;13.93;6.45;;;28.20;99.90;;;;;;5100193;28;20056;-82
2021/03/22 11:39:43;;;;;;;12.95;6.80;;;27.40;99.90;;;;;;5103435;28;20061;-81
2021/03/22 11:42:31;;;;;;;12.40;6.68;;;27.90;99.90;;;;;;5106597;28;20095;-81
2021/03/22 11:44:57;;;;;;;11.10;6.47;;;30.60;99.90;;;;;;5108915;28;20024;-81
2021/03/22 11:47:23;;;;;;;10.95;5.68;;;31.10;99.90;;;;;;5095051;28;20112;-81
2021/03/22 11:49:50;;;;;;;13.18;6.20;;;29.90;99.90;;;;;;5083088;28;20028;-80
2021/03/22 11:52:20;;;;;;;10.50;5.95;;;28.80;99.90;;;;;;5093521;28;20028;-80
2021/03/22 11:55:00;;;;;;;10.43;6.57;;;28.40;99.90;;;;;;5094006;28;20444;-80
2021/03/22 11:57:37;;;;;;;10.82;6.53;;;27.10;99.90;;;;;;5094963;28;20043;-80
2021/03/22 12:00:24;;;;;;;13.13;6.57;;;25.40;99.90;;;;;;5085579;28;20093;-80
2021/03/22 12:03:01;;;;;;;10.88;6.25;;;26.80;99.90;;;;;;5093372;28;20020;-80
2021/03/22 12:05:36;;;;;;;13.98;6.50;;;27.40;99.90;;;;;;5101057;28;20012;-81
2021/03/22 12:08:34;;;;;;;11.98;6.85;;;26.10;99.90;;;;;;5094580;28;21297;-81
2021/03/22 12:11:06;;;;;;;15.20;6.90;;;24.80;99.90;;;;;;5088819;28;20680;-81
2021/03/22 12:13:32;;;;;;;10.45;6.18;;;26.30;99.90;;;;;;5095336;28;20020;-82
2021/03/22 12:16:00;;;;;;;15.20;5.90;;;28.10;99.90;;;;;;5093853;28;20131;-81
2021/03/22 12:18:33;;;;;;;12.77;6.43;;;29.60;99.90;;;;;;5093681;28;20104;-81
2021/03/22 12:21:00;;;;;;;11.85;5.72;;;28.60;99.90;;;;;;5092638;28;20385;-80
2021/03/22 12:23:26;;;;;;;12.73;6.57;;;26.60;99.90;;;;;;5096432;28;20392;-80
2021/03/22 12:25:53;;;;;;;13.27;6.50;;;27.10;99.90;;;;;;5094758;28;20032;-79
2021/03/22 12:28:18;;;;;;;13.35;5.90;;;27.70;99.90;;;;;;5094955;28;20073;-80
2021/03/22 12:30:44;;;;;;;13.25;5.88;;;26.50;99.90;;;;;;5095631;28;20028;-80
2021/03/22 12:33:22;;;;;;;16.70;6.25;;;26.80;99.90;;;;;;5094933;28;20024;-81
2021/03/22 12:35:48;;;;;;;12.45;5.47;;;27.30;99.90;;;;;;5094200;28;20023;-82
2021/03/22 12:38:13;;;;;;;12.02;5.38;;;26.40;99.90;;;;;;5094735;28;20032;-81
2021/03/22 12:40:40;;;;;;;15.82;5.75;;;26.10;99.90;;;;;;5094946;28;20111;-81
2021/03/22 12:43:06;;;;;;;13.38;5.65;;;26.40;99.90;;;;;;5094606;28;20028;-81
2021/03/22 12:45:34;;;;;;;13.55;5.80;;;25.70;99.90;;;;;;5095179;28;20082;-81
2021/03/22 12:48:01;;;;;;;10.50;5.28;;;25.10;99.90;;;;;;5094008;28;20115;-81
2021/03/22 12:50:35;;;;;;;14.85;5.85;;;25.40;99.90;;;;;;5095298;28;20037;-81
2021/03/22 12:53:00;;;;;;;13.95;5.50;;;25.80;99.90;;;;;;5114497;28;20530;-81
2021/03/22 12:55:28;;;;;;;10.90;5.50;;;22.30;99.90;;;;;;5115648;28;20031;-81
2021/03/22 12:58:00;;;;;;;11.02;5.45;;;23.60;99.90;;;;;;5115588;28;20349;-81
2021/03/22 13:00:28;;;;;;;12.07;5.03;;;24.10;99.90;;;;;;5095533;28;20062;-81
2021/03/22 13:02:54;;;;;;;11.70;5.10;;;23.50;99.90;;;;;;5094347;28;20527;-81
2021/03/22 13:05:26;;;;;;;12.77;5.72;;;22.80;99.90;;;;;;5094133;28;20039;-81
2021/03/22 13:07:53;;;;;;;11.43;5.13;;;24.10;99.90;;;;;;5095006;28;20024;-81
2021/03/22 13:10:22;;;;;;;13.00;4.90;;;25.50;99.90;;;;;;5094871;28;20024;-81
2021/03/22 13:12:48;;;;;;;14.27;5.32;;;24.10;99.90;;;;;;5094969;28;20496;-81